sensor_id;sensor_type;location;lat;lon;timestamp;temperature;humidity
23311;DHT22;11828;51.508;18.118;2023-03-01T00:01:16;17.10;27.90
23311;DHT22;11828;51.508;18.118;2023-03-01T00:03:47;17.20;27.90
23311;DHT22;11828;51.508;18.118;2023-03-01T00:06:13;17.20;27.80
23311;DHT22;11828;51.508;18.118;2023-03-01T00:08:40;17.30;27.80
23311;DHT22;11828;51.508;18.118;2023-03-01T00:13:34;17.30;27.80
23311;DHT22;11828;51.508;18.118;2023-03-01T00:16:06;17.20;27.70
23311;DHT22;11828;51.508;18.118;2023-03-01T00:18:34;17.20;27.60
23311;DHT22;11828;51.508;18.118;2023-03-01T00:21:00;17.20;27.70
23311;DHT22;11828;51.508;18.118;2023-03-01T00:23:27;17.20;27.80
23311;DHT22;11828;51.508;18.118;2023-03-01T00:25:54;17.10;27.70
23311;DHT22;11828;51.508;18.118;2023-03-01T00:28:20;17.10;27.60
23311;DHT22;11828;51.508;18.118;2023-03-01T00:30:47;17.10;27.60
23311;DHT22;11828;51.508;18.118;2023-03-01T00:33:13;17.00;27.60
23311;DHT22;11828;51.508;18.118;2023-03-01T00:35:39;17.00;27.60
23311;DHT22;11828;51.508;18.118;2023-03-01T00:38:05;17.00;27.60
23311;DHT22;11828;51.508;18.118;2023-03-01T00:40:34;17.00;27.70
23311;DHT22;11828;51.508;18.118;2023-03-01T00:43:01;16.90;27.70
23311;DHT22;11828;51.508;18.118;2023-03-01T00:45:28;16.90;27.60
23311;DHT22;11828;51.508;18.118;2023-03-01T00:47:56;16.80;27.60
23311;DHT22;11828;51.508;18.118;2023-03-01T00:50:23;16.80;27.60
23311;DHT22;11828;51.508;18.118;2023-03-01T00:52:54;16.80;28.30
23311;DHT22;11828;51.508;18.118;2023-03-01T00:55:22;16.80;27.80
23311;DHT22;11828;51.508;18.118;2023-03-01T00:57:48;16.80;27.70
23311;DHT22;11828;51.508;18.118;2023-03-01T01:00:14;16.80;27.60
23311;DHT22;11828;51.508;18.118;2023-03-01T01:02:41;16.80;27.60
23311;DHT22;11828;51.508;18.118;2023-03-01T01:05:08;16.80;27.50
23311;DHT22;11828;51.508;18.118;2023-03-01T01:07:34;16.90;27.50
23311;DHT22;11828;51.508;18.118;2023-03-01T01:10:00;16.80;27.40
23311;DHT22;11828;51.508;18.118;2023-03-01T01:12:26;16.80;27.40
23311;DHT22;11828;51.508;18.118;2023-03-01T01:14:53;16.90;27.30
23311;DHT22;11828;51.508;18.118;2023-03-01T01:17:19;16.80;27.30
23311;DHT22;11828;51.508;18.118;2023-03-01T01:19:45;16.80;27.50
23311;DHT22;11828;51.508;18.118;2023-03-01T01:22:11;16.80;27.50
23311;DHT22;11828;51.508;18.118;2023-03-01T01:24:38;16.70;27.70
23311;DHT22;11828;51.508;18.118;2023-03-01T01:27:04;16.70;27.80
23311;DHT22;11828;51.508;18.118;2023-03-01T01:29:30;16.70;27.80
23311;DHT22;11828;51.508;18.118;2023-03-01T01:31:56;16.60;27.80
23311;DHT22;11828;51.508;18.118;2023-03-01T01:34:23;16.50;27.80
23311;DHT22;11828;51.508;18.118;2023-03-01T01:36:51;16.40;27.70
23311;DHT22;11828;51.508;18.118;2023-03-01T01:39:20;16.40;27.90
23311;DHT22;11828;51.508;18.118;2023-03-01T01:41:47;16.30;28.00
23311;DHT22;11828;51.508;18.118;2023-03-01T01:44:40;16.30;28.10
23311;DHT22;11828;51.508;18.118;2023-03-01T01:47:12;16.30;28.10
23311;DHT22;11828;51.508;18.118;2023-03-01T01:49:56;16.30;28.00
23311;DHT22;11828;51.508;18.118;2023-03-01T01:52:29;16.40;27.90
23311;DHT22;11828;51.508;18.118;2023-03-01T01:55:08;16.40;27.80
23311;DHT22;11828;51.508;18.118;2023-03-01T01:57:43;16.50;27.80
23311;DHT22;11828;51.508;18.118;2023-03-01T02:00:23;16.40;27.60
23311;DHT22;11828;51.508;18.118;2023-03-01T02:02:56;16.40;27.70
23311;DHT22;11828;51.508;18.118;2023-03-01T02:05:38;16.50;27.80
23311;DHT22;11828;51.508;18.118;2023-03-01T02:08:05;16.50;27.80
23311;DHT22;11828;51.508;18.118;2023-03-01T02:10:34;16.50;27.70
23311;DHT22;11828;51.508;18.118;2023-03-01T02:13:01;16.50;27.70
23311;DHT22;11828;51.508;18.118;2023-03-01T02:15:35;16.50;27.80
23311;DHT22;11828;51.508;18.118;2023-03-01T02:18:03;16.50;27.70
23311;DHT22;11828;51.508;18.118;2023-03-01T02:20:36;16.50;27.50
23311;DHT22;11828;51.508;18.118;2023-03-01T02:23:11;16.50;27.40
23311;DHT22;11828;51.508;18.118;2023-03-01T02:30:48;16.50;27.20
23311;DHT22;11828;51.508;18.118;2023-03-01T02:33:36;16.50;27.30
23311;DHT22;11828;51.508;18.118;2023-03-01T02:36:08;16.50;27.20
23311;DHT22;11828;51.508;18.118;2023-03-01T02:38:42;16.50;27.10
23311;DHT22;11828;51.508;18.118;2023-03-01T02:41:11;16.50;27.20
23311;DHT22;11828;51.508;18.118;2023-03-01T02:43:39;16.40;27.30
23311;DHT22;11828;51.508;18.118;2023-03-01T02:46:12;16.40;27.40
23311;DHT22;11828;51.508;18.118;2023-03-01T02:48:51;16.40;27.50
23311;DHT22;11828;51.508;18.118;2023-03-01T02:57:39;16.30;27.30
23311;DHT22;11828;51.508;18.118;2023-03-01T03:00:15;16.30;27.30
23311;DHT22;11828;51.508;18.118;2023-03-01T03:02:49;16.30;27.10
23311;DHT22;11828;51.508;18.118;2023-03-01T03:05:17;16.30;27.20
23311;DHT22;11828;51.508;18.118;2023-03-01T03:07:46;16.20;27.20
23311;DHT22;11828;51.508;18.118;2023-03-01T03:10:17;16.10;27.30
23311;DHT22;11828;51.508;18.118;2023-03-01T03:12:50;16.10;27.50
23311;DHT22;11828;51.508;18.118;2023-03-01T03:15:18;16.00;27.60
23311;DHT22;11828;51.508;18.118;2023-03-01T03:17:46;16.00;27.60
23311;DHT22;11828;51.508;18.118;2023-03-01T03:20:15;16.00;27.50
23311;DHT22;11828;51.508;18.118;2023-03-01T03:22:49;16.10;27.50
23311;DHT22;11828;51.508;18.118;2023-03-01T03:25:17;16.10;27.50
23311;DHT22;11828;51.508;18.118;2023-03-01T03:27:46;16.10;27.50
23311;DHT22;11828;51.508;18.118;2023-03-01T03:30:17;16.10;27.40
23311;DHT22;11828;51.508;18.118;2023-03-01T03:32:46;16.10;27.50
23311;DHT22;11828;51.508;18.118;2023-03-01T03:35:25;16.10;27.50
23311;DHT22;11828;51.508;18.118;2023-03-01T03:37:54;16.10;27.40
23311;DHT22;11828;51.508;18.118;2023-03-01T03:40:38;16.10;27.30
23311;DHT22;11828;51.508;18.118;2023-03-01T03:43:08;16.10;27.20
23311;DHT22;11828;51.508;18.118;2023-03-01T03:45:39;16.10;27.30
23311;DHT22;11828;51.508;18.118;2023-03-01T03:48:07;16.10;27.20
23311;DHT22;11828;51.508;18.118;2023-03-01T03:50:35;16.00;27.20
23311;DHT22;11828;51.508;18.118;2023-03-01T03:53:04;16.00;27.30
23311;DHT22;11828;51.508;18.118;2023-03-01T03:55:32;15.90;27.30
23311;DHT22;11828;51.508;18.118;2023-03-01T03:58:01;15.90;27.30
23311;DHT22;11828;51.508;18.118;2023-03-01T04:00:34;15.90;27.40
23311;DHT22;11828;51.508;18.118;2023-03-01T04:03:01;15.90;27.60
23311;DHT22;11828;51.508;18.118;2023-03-01T04:05:27;15.80;27.60
23311;DHT22;11828;51.508;18.118;2023-03-01T04:07:54;15.80;27.60
23311;DHT22;11828;51.508;18.118;2023-03-01T04:10:45;15.70;27.60
23311;DHT22;11828;51.508;18.118;2023-03-01T04:13:17;15.80;27.60
23311;DHT22;11828;51.508;18.118;2023-03-01T04:15:49;15.80;27.50
23311;DHT22;11828;51.508;18.118;2023-03-01T04:18:17;15.80;27.40
23311;DHT22;11828;51.508;18.118;2023-03-01T04:20:45;15.70;27.40
23311;DHT22;11828;51.508;18.118;2023-03-01T04:23:17;15.50;27.50
23311;DHT22;11828;51.508;18.118;2023-03-01T04:28:24;15.40;27.80
23311;DHT22;11828;51.508;18.118;2023-03-01T04:30:55;15.30;27.90
23311;DHT22;11828;51.508;18.118;2023-03-01T04:33:23;15.20;27.90
23311;DHT22;11828;51.508;18.118;2023-03-01T04:35:50;15.20;28.10
23311;DHT22;11828;51.508;18.118;2023-03-01T04:38:18;15.20;28.10
23311;DHT22;11828;51.508;18.118;2023-03-01T04:40:44;15.20;28.10
23311;DHT22;11828;51.508;18.118;2023-03-01T04:43:12;15.30;28.10
23311;DHT22;11828;51.508;18.118;2023-03-01T04:45:41;15.30;27.90
23311;DHT22;11828;51.508;18.118;2023-03-01T04:48:07;15.30;27.90
23311;DHT22;11828;51.508;18.118;2023-03-01T04:50:34;15.30;27.90
23311;DHT22;11828;51.508;18.118;2023-03-01T04:53:01;15.20;27.90
23311;DHT22;11828;51.508;18.118;2023-03-01T04:55:28;15.00;28.00
23311;DHT22;11828;51.508;18.118;2023-03-01T04:57:55;15.00;28.00
23311;DHT22;11828;51.508;18.118;2023-03-01T05:00:21;14.80;28.20
23311;DHT22;11828;51.508;18.118;2023-03-01T05:02:59;14.70;28.30
23311;DHT22;11828;51.508;18.118;2023-03-01T05:05:35;14.60;28.40
23311;DHT22;11828;51.508;18.118;2023-03-01T05:08:06;14.50;28.60
23311;DHT22;11828;51.508;18.118;2023-03-01T05:10:34;14.50;28.60
23311;DHT22;11828;51.508;18.118;2023-03-01T05:13:03;14.60;28.80
23311;DHT22;11828;51.508;18.118;2023-03-01T05:15:31;14.70;28.80
23311;DHT22;11828;51.508;18.118;2023-03-01T05:17:59;14.80;28.60
23311;DHT22;11828;51.508;18.118;2023-03-01T05:20:27;14.80;28.50
23311;DHT22;11828;51.508;18.118;2023-03-01T05:22:59;14.90;28.50
23311;DHT22;11828;51.508;18.118;2023-03-01T05:25:26;14.90;28.30
23311;DHT22;11828;51.508;18.118;2023-03-01T05:27:52;15.00;28.30
23311;DHT22;11828;51.508;18.118;2023-03-01T05:30:19;15.00;28.10
23311;DHT22;11828;51.508;18.118;2023-03-01T05:32:47;15.00;28.00
23311;DHT22;11828;51.508;18.118;2023-03-01T05:35:17;15.10;28.10
23311;DHT22;11828;51.508;18.118;2023-03-01T05:37:46;15.20;28.20
23311;DHT22;11828;51.508;18.118;2023-03-01T05:40:16;15.30;28.10
23311;DHT22;11828;51.508;18.118;2023-03-01T05:42:44;15.30;27.80
23311;DHT22;11828;51.508;18.118;2023-03-01T05:45:13;15.40;27.90
23311;DHT22;11828;51.508;18.118;2023-03-01T05:47:40;15.50;27.80
23311;DHT22;11828;51.508;18.118;2023-03-01T05:50:15;15.60;27.80
23311;DHT22;11828;51.508;18.118;2023-03-01T05:52:51;15.60;27.70
23311;DHT22;11828;51.508;18.118;2023-03-01T05:55:23;15.70;27.60
23311;DHT22;11828;51.508;18.118;2023-03-01T05:57:49;15.80;27.30
23311;DHT22;11828;51.508;18.118;2023-03-01T06:00:19;15.80;27.20
23311;DHT22;11828;51.508;18.118;2023-03-01T06:02:47;15.90;27.30
23311;DHT22;11828;51.508;18.118;2023-03-01T06:05:14;16.00;27.40
23311;DHT22;11828;51.508;18.118;2023-03-01T06:07:41;16.10;27.40
23311;DHT22;11828;51.508;18.118;2023-03-01T06:10:08;16.10;27.20
23311;DHT22;11828;51.508;18.118;2023-03-01T06:12:37;16.30;27.20
23311;DHT22;11828;51.508;18.118;2023-03-01T06:15:04;16.40;27.20
23311;DHT22;11828;51.508;18.118;2023-03-01T06:17:33;16.70;27.10
23311;DHT22;11828;51.508;18.118;2023-03-01T06:20:04;17.00;26.60
23311;DHT22;11828;51.508;18.118;2023-03-01T06:22:31;17.30;26.30
23311;DHT22;11828;51.508;18.118;2023-03-01T06:24:57;17.40;26.10
23311;DHT22;11828;51.508;18.118;2023-03-01T06:27:24;17.60;26.10
23311;DHT22;11828;51.508;18.118;2023-03-01T06:29:50;17.80;26.20
23311;DHT22;11828;51.508;18.118;2023-03-01T06:32:16;18.00;26.30
23311;DHT22;11828;51.508;18.118;2023-03-01T06:34:42;18.20;26.40
23311;DHT22;11828;51.508;18.118;2023-03-01T06:37:09;18.50;26.50
23311;DHT22;11828;51.508;18.118;2023-03-01T06:39:35;18.80;26.40
23311;DHT22;11828;51.508;18.118;2023-03-01T06:42:02;19.20;26.10
23311;DHT22;11828;51.508;18.118;2023-03-01T06:44:28;19.60;25.70
23311;DHT22;11828;51.508;18.118;2023-03-01T06:46:55;20.20;25.30
23311;DHT22;11828;51.508;18.118;2023-03-01T06:49:21;20.70;24.90
23311;DHT22;11828;51.508;18.118;2023-03-01T06:51:47;21.20;24.80
23311;DHT22;11828;51.508;18.118;2023-03-01T06:54:14;21.70;24.10
23311;DHT22;11828;51.508;18.118;2023-03-01T06:56:41;22.20;23.50
23311;DHT22;11828;51.508;18.118;2023-03-01T06:59:07;22.50;23.00
23311;DHT22;11828;51.508;18.118;2023-03-01T07:01:33;22.70;23.00
23311;DHT22;11828;51.508;18.118;2023-03-01T07:03:59;23.00;22.80
23311;DHT22;11828;51.508;18.118;2023-03-01T07:06:25;23.20;22.80
23311;DHT22;11828;51.508;18.118;2023-03-01T07:08:51;23.50;22.40
23311;DHT22;11828;51.508;18.118;2023-03-01T07:11:17;23.70;22.00
23311;DHT22;11828;51.508;18.118;2023-03-01T07:13:43;23.80;22.20
23311;DHT22;11828;51.508;18.118;2023-03-01T07:16:09;23.80;21.90
23311;DHT22;11828;51.508;18.118;2023-03-01T07:18:35;23.80;22.00
23311;DHT22;11828;51.508;18.118;2023-03-01T07:21:09;23.90;22.20
23311;DHT22;11828;51.508;18.118;2023-03-01T07:23:37;24.20;22.20
23311;DHT22;11828;51.508;18.118;2023-03-01T07:26:03;24.80;21.60
23311;DHT22;11828;51.508;18.118;2023-03-01T07:28:29;25.20;21.50
23311;DHT22;11828;51.508;18.118;2023-03-01T07:31:04;25.70;21.00
23311;DHT22;11828;51.508;18.118;2023-03-01T07:33:31;26.10;20.70
23311;DHT22;11828;51.508;18.118;2023-03-01T07:35:58;26.30;20.40
23311;DHT22;11828;51.508;18.118;2023-03-01T07:38:26;26.40;20.30
23311;DHT22;11828;51.508;18.118;2023-03-01T07:40:53;26.60;20.10
23311;DHT22;11828;51.508;18.118;2023-03-01T07:43:19;27.00;19.80
23311;DHT22;11828;51.508;18.118;2023-03-01T07:45:46;27.30;19.80
23311;DHT22;11828;51.508;18.118;2023-03-01T07:48:12;27.60;19.70
23311;DHT22;11828;51.508;18.118;2023-03-01T07:50:39;28.00;19.50
23311;DHT22;11828;51.508;18.118;2023-03-01T07:53:04;28.30;19.20
23311;DHT22;11828;51.508;18.118;2023-03-01T07:55:31;28.60;19.00
23311;DHT22;11828;51.508;18.118;2023-03-01T07:57:57;29.10;18.70
23311;DHT22;11828;51.508;18.118;2023-03-01T08:00:23;29.30;18.50
23311;DHT22;11828;51.508;18.118;2023-03-01T08:02:49;29.70;18.40
23311;DHT22;11828;51.508;18.118;2023-03-01T08:05:16;30.20;18.10
23311;DHT22;11828;51.508;18.118;2023-03-01T08:07:42;30.90;17.90
23311;DHT22;11828;51.508;18.118;2023-03-01T08:10:09;31.60;17.20
23311;DHT22;11828;51.508;18.118;2023-03-01T08:12:35;32.50;16.70
23311;DHT22;11828;51.508;18.118;2023-03-01T08:15:02;33.20;16.00
23311;DHT22;11828;51.508;18.118;2023-03-01T08:17:28;33.80;15.70
23311;DHT22;11828;51.508;18.118;2023-03-01T08:19:54;34.40;15.30
23311;DHT22;11828;51.508;18.118;2023-03-01T08:22:20;35.00;15.10
23311;DHT22;11828;51.508;18.118;2023-03-01T08:24:47;35.50;14.80
23311;DHT22;11828;51.508;18.118;2023-03-01T08:27:15;35.90;14.70
23311;DHT22;11828;51.508;18.118;2023-03-01T08:29:42;36.20;14.40
23311;DHT22;11828;51.508;18.118;2023-03-01T08:32:09;36.50;14.40
23311;DHT22;11828;51.508;18.118;2023-03-01T08:34:35;36.70;14.30
23311;DHT22;11828;51.508;18.118;2023-03-01T08:37:01;37.10;14.00
23311;DHT22;11828;51.508;18.118;2023-03-01T08:39:28;37.20;13.90
23311;DHT22;11828;51.508;18.118;2023-03-01T08:41:54;37.40;13.80
23311;DHT22;11828;51.508;18.118;2023-03-01T08:44:21;37.70;13.80
23311;DHT22;11828;51.508;18.118;2023-03-01T08:46:47;38.00;13.70
23311;DHT22;11828;51.508;18.118;2023-03-01T08:49:17;38.50;13.50
23311;DHT22;11828;51.508;18.118;2023-03-01T08:51:46;38.60;13.40
23311;DHT22;11828;51.508;18.118;2023-03-01T08:54:20;38.70;13.20
23311;DHT22;11828;51.508;18.118;2023-03-01T08:56:47;38.70;13.30
23311;DHT22;11828;51.508;18.118;2023-03-01T08:59:15;38.80;13.10
23311;DHT22;11828;51.508;18.118;2023-03-01T09:01:42;39.00;13.10
23311;DHT22;11828;51.508;18.118;2023-03-01T09:04:12;39.00;12.90
23311;DHT22;11828;51.508;18.118;2023-03-01T09:06:38;39.00;12.90
23311;DHT22;11828;51.508;18.118;2023-03-01T09:09:05;39.40;12.80
23311;DHT22;11828;51.508;18.118;2023-03-01T09:11:32;39.90;12.60
23311;DHT22;11828;51.508;18.118;2023-03-01T09:13:59;40.30;12.50
23311;DHT22;11828;51.508;18.118;2023-03-01T09:16:25;40.50;12.30
23311;DHT22;11828;51.508;18.118;2023-03-01T09:18:53;40.50;12.30
23311;DHT22;11828;51.508;18.118;2023-03-01T09:21:21;40.60;12.30
23311;DHT22;11828;51.508;18.118;2023-03-01T09:23:49;41.00;12.10
23311;DHT22;11828;51.508;18.118;2023-03-01T09:26:18;41.10;11.80
23311;DHT22;11828;51.508;18.118;2023-03-01T09:28:47;41.20;11.80
23311;DHT22;11828;51.508;18.118;2023-03-01T09:31:15;41.20;11.90
23311;DHT22;11828;51.508;18.118;2023-03-01T09:33:44;40.90;11.70
23311;DHT22;11828;51.508;18.118;2023-03-01T09:36:13;40.80;11.90
23311;DHT22;11828;51.508;18.118;2023-03-01T09:38:41;40.50;11.90
23311;DHT22;11828;51.508;18.118;2023-03-01T09:43:50;40.60;11.70
23311;DHT22;11828;51.508;18.118;2023-03-01T09:46:36;40.80;11.50
23311;DHT22;11828;51.508;18.118;2023-03-01T09:49:21;40.80;11.40
23311;DHT22;11828;51.508;18.118;2023-03-01T09:51:59;40.60;11.40
23311;DHT22;11828;51.508;18.118;2023-03-01T09:54:27;40.50;11.40
23311;DHT22;11828;51.508;18.118;2023-03-01T10:00:16;40.60;11.40
23311;DHT22;11828;51.508;18.118;2023-03-01T10:03:10;40.70;11.30
23311;DHT22;11828;51.508;18.118;2023-03-01T10:11:03;39.90;11.50
23311;DHT22;11828;51.508;18.118;2023-03-01T10:17:12;40.00;11.50
23311;DHT22;11828;51.508;18.118;2023-03-01T10:22:48;40.40;11.10
23311;DHT22;11828;51.508;18.118;2023-03-01T10:28:37;40.00;11.00
23311;DHT22;11828;51.508;18.118;2023-03-01T10:31:36;39.70;11.30
23311;DHT22;11828;51.508;18.118;2023-03-01T10:34:14;39.50;11.20
23311;DHT22;11828;51.508;18.118;2023-03-01T10:36:43;39.50;11.20
23311;DHT22;11828;51.508;18.118;2023-03-01T10:39:17;39.40;11.20
23311;DHT22;11828;51.508;18.118;2023-03-01T10:44:45;39.10;11.30
23311;DHT22;11828;51.508;18.118;2023-03-01T10:47:24;38.90;11.20
23311;DHT22;11828;51.508;18.118;2023-03-01T10:52:29;38.20;11.40
23311;DHT22;11828;51.508;18.118;2023-03-01T10:55:04;38.10;11.50
23311;DHT22;11828;51.508;18.118;2023-03-01T10:58:07;37.90;11.40
23311;DHT22;11828;51.508;18.118;2023-03-01T11:00:58;37.80;11.30
23311;DHT22;11828;51.508;18.118;2023-03-01T11:03:36;37.60;11.40
23311;DHT22;11828;51.508;18.118;2023-03-01T11:08:41;37.60;11.60
23311;DHT22;11828;51.508;18.118;2023-03-01T11:16:49;37.10;11.60
23311;DHT22;11828;51.508;18.118;2023-03-01T11:19:24;36.90;11.80
23311;DHT22;11828;51.508;18.118;2023-03-01T11:22:13;36.60;11.90
23311;DHT22;11828;51.508;18.118;2023-03-01T11:24:50;36.10;11.90
23311;DHT22;11828;51.508;18.118;2023-03-01T11:27:33;35.40;12.10
23311;DHT22;11828;51.508;18.118;2023-03-01T11:30:21;35.00;12.30
23311;DHT22;11828;51.508;18.118;2023-03-01T11:33:04;34.60;12.60
23311;DHT22;11828;51.508;18.118;2023-03-01T11:38:44;33.80;13.00
23311;DHT22;11828;51.508;18.118;2023-03-01T11:41:31;33.80;13.00
23311;DHT22;11828;51.508;18.118;2023-03-01T11:44:14;33.70;12.90
23311;DHT22;11828;51.508;18.118;2023-03-01T12:04:11;34.20;12.90
23311;DHT22;11828;51.508;18.118;2023-03-01T12:06:56;34.40;12.30
23311;DHT22;11828;51.508;18.118;2023-03-01T12:09:43;34.50;12.10
23311;DHT22;11828;51.508;18.118;2023-03-01T12:12:40;34.70;12.20
23311;DHT22;11828;51.508;18.118;2023-03-01T12:50:40;42.70;10.30
23311;DHT22;11828;51.508;18.118;2023-03-01T12:56:25;42.70;10.30
23311;DHT22;11828;51.508;18.118;2023-03-01T13:07:30;42.10;10.20
23311;DHT22;11828;51.508;18.118;2023-03-01T13:15:49;42.00;10.40
23311;DHT22;11828;51.508;18.118;2023-03-01T13:20:51;42.30;10.40
23311;DHT22;11828;51.508;18.118;2023-03-01T13:46:56;42.10;10.10
23311;DHT22;11828;51.508;18.118;2023-03-01T13:49:56;42.40;10.40
23311;DHT22;11828;51.508;18.118;2023-03-01T13:52:40;42.50;9.80
23311;DHT22;11828;51.508;18.118;2023-03-01T13:55:23;42.50;9.90
23311;DHT22;11828;51.508;18.118;2023-03-01T13:58:01;42.70;10.00
23311;DHT22;11828;51.508;18.118;2023-03-01T14:00:38;42.90;9.90
23311;DHT22;11828;51.508;18.118;2023-03-01T14:03:18;42.80;9.90
23311;DHT22;11828;51.508;18.118;2023-03-01T14:08:33;42.50;9.50
23311;DHT22;11828;51.508;18.118;2023-03-01T14:14:09;41.70;9.90
23311;DHT22;11828;51.508;18.118;2023-03-01T14:20:23;40.80;9.80
23311;DHT22;11828;51.508;18.118;2023-03-01T14:22:54;40.50;10.00
23311;DHT22;11828;51.508;18.118;2023-03-01T14:25:35;40.00;10.00
23311;DHT22;11828;51.508;18.118;2023-03-01T14:30:47;39.40;10.30
23311;DHT22;11828;51.508;18.118;2023-03-01T14:33:29;39.20;10.40
23311;DHT22;11828;51.508;18.118;2023-03-01T14:36:05;38.90;10.60
23311;DHT22;11828;51.508;18.118;2023-03-01T14:41:31;38.30;10.70
23311;DHT22;11828;51.508;18.118;2023-03-01T14:43:59;37.90;10.90
23311;DHT22;11828;51.508;18.118;2023-03-01T14:46:40;37.40;10.90
23311;DHT22;11828;51.508;18.118;2023-03-01T14:49:19;36.90;11.10
23311;DHT22;11828;51.508;18.118;2023-03-01T14:51:57;36.50;11.40
23311;DHT22;11828;51.508;18.118;2023-03-01T14:54:31;36.00;11.60
23311;DHT22;11828;51.508;18.118;2023-03-01T14:57:01;35.60;11.60
23311;DHT22;11828;51.508;18.118;2023-03-01T14:59:27;34.90;11.70
23311;DHT22;11828;51.508;18.118;2023-03-01T15:01:57;34.40;11.90
23311;DHT22;11828;51.508;18.118;2023-03-01T15:04:26;34.10;12.20
23311;DHT22;11828;51.508;18.118;2023-03-01T15:06:54;34.10;12.30
23311;DHT22;11828;51.508;18.118;2023-03-01T15:09:22;33.90;12.30
23311;DHT22;11828;51.508;18.118;2023-03-01T15:11:49;33.40;12.50
23311;DHT22;11828;51.508;18.118;2023-03-01T15:14:41;32.60;12.10
23311;DHT22;11828;51.508;18.118;2023-03-01T15:17:30;31.70;12.60
23311;DHT22;11828;51.508;18.118;2023-03-01T15:20:22;30.70;12.70
23311;DHT22;11828;51.508;18.118;2023-03-01T15:22:47;29.90;12.80
23311;DHT22;11828;51.508;18.118;2023-03-01T15:25:21;29.10;13.10
23311;DHT22;11828;51.508;18.118;2023-03-01T15:27:50;28.40;13.30
23311;DHT22;11828;51.508;18.118;2023-03-01T15:30:21;27.90;13.80
23311;DHT22;11828;51.508;18.118;2023-03-01T15:33:16;27.50;14.50
23311;DHT22;11828;51.508;18.118;2023-03-01T15:35:50;27.00;15.70
23311;DHT22;11828;51.508;18.118;2023-03-01T15:38:36;26.60;15.80
23311;DHT22;11828;51.508;18.118;2023-03-01T15:44:13;25.90;17.30
23311;DHT22;11828;51.508;18.118;2023-03-01T15:46:47;25.60;17.50
23311;DHT22;11828;51.508;18.118;2023-03-01T15:49:35;25.40;18.00
23311;DHT22;11828;51.508;18.118;2023-03-01T15:52:13;25.10;18.90
23311;DHT22;11828;51.508;18.118;2023-03-01T15:55:02;25.00;18.90
23311;DHT22;11828;51.508;18.118;2023-03-01T15:57:30;24.80;19.20
23311;DHT22;11828;51.508;18.118;2023-03-01T15:59:56;24.80;19.70
23311;DHT22;11828;51.508;18.118;2023-03-01T16:02:24;24.70;19.70
23311;DHT22;11828;51.508;18.118;2023-03-01T16:04:50;24.60;19.70
23311;DHT22;11828;51.508;18.118;2023-03-01T16:07:17;24.50;19.90
23311;DHT22;11828;51.508;18.118;2023-03-01T16:09:43;24.40;19.90
23311;DHT22;11828;51.508;18.118;2023-03-01T16:12:16;24.40;20.10
23311;DHT22;11828;51.508;18.118;2023-03-01T16:14:43;24.30;20.30
23311;DHT22;11828;51.508;18.118;2023-03-01T16:17:09;24.30;20.10
23311;DHT22;11828;51.508;18.118;2023-03-01T16:19:39;24.20;20.10
23311;DHT22;11828;51.508;18.118;2023-03-01T16:22:06;24.20;20.20
23311;DHT22;11828;51.508;18.118;2023-03-01T16:24:35;24.10;20.20
23311;DHT22;11828;51.508;18.118;2023-03-01T16:27:02;24.00;20.20
23311;DHT22;11828;51.508;18.118;2023-03-01T16:29:28;24.00;20.10
23311;DHT22;11828;51.508;18.118;2023-03-01T16:31:55;24.00;19.80
23311;DHT22;11828;51.508;18.118;2023-03-01T16:34:22;23.90;19.70
23311;DHT22;11828;51.508;18.118;2023-03-01T16:36:49;23.80;19.70
23311;DHT22;11828;51.508;18.118;2023-03-01T16:39:15;23.70;19.80
23311;DHT22;11828;51.508;18.118;2023-03-01T16:41:42;23.60;19.80
23311;DHT22;11828;51.508;18.118;2023-03-01T16:44:08;23.60;20.40
23311;DHT22;11828;51.508;18.118;2023-03-01T16:46:34;23.50;19.90
23311;DHT22;11828;51.508;18.118;2023-03-01T16:49:01;23.40;20.00
23311;DHT22;11828;51.508;18.118;2023-03-01T16:51:28;23.30;20.60
23311;DHT22;11828;51.508;18.118;2023-03-01T16:53:55;23.30;20.70
23311;DHT22;11828;51.508;18.118;2023-03-01T16:56:21;23.10;20.20
23311;DHT22;11828;51.508;18.118;2023-03-01T16:58:48;23.10;20.40
23311;DHT22;11828;51.508;18.118;2023-03-01T17:01:17;23.00;20.50
23311;DHT22;11828;51.508;18.118;2023-03-01T17:03:46;22.90;20.70
23311;DHT22;11828;51.508;18.118;2023-03-01T17:06:16;22.90;20.90
23311;DHT22;11828;51.508;18.118;2023-03-01T17:08:46;22.90;21.00
23311;DHT22;11828;51.508;18.118;2023-03-01T17:11:16;22.80;21.10
23311;DHT22;11828;51.508;18.118;2023-03-01T17:13:44;22.80;21.40
23311;DHT22;11828;51.508;18.118;2023-03-01T17:16:14;22.70;21.30
23311;DHT22;11828;51.508;18.118;2023-03-01T17:18:42;22.60;21.40
23311;DHT22;11828;51.508;18.118;2023-03-01T17:21:09;22.60;22.00
23311;DHT22;11828;51.508;18.118;2023-03-01T17:23:38;22.50;21.50
23311;DHT22;11828;51.508;18.118;2023-03-01T17:26:05;22.40;21.80
23311;DHT22;11828;51.508;18.118;2023-03-01T17:28:33;22.30;22.00
23311;DHT22;11828;51.508;18.118;2023-03-01T17:31:00;22.30;22.10
23311;DHT22;11828;51.508;18.118;2023-03-01T17:33:28;22.30;22.00
23311;DHT22;11828;51.508;18.118;2023-03-01T17:35:58;22.30;22.10
23311;DHT22;11828;51.508;18.118;2023-03-01T17:38:25;22.20;22.10
23311;DHT22;11828;51.508;18.118;2023-03-01T17:40:51;22.20;22.10
23311;DHT22;11828;51.508;18.118;2023-03-01T17:43:17;22.20;22.20
23311;DHT22;11828;51.508;18.118;2023-03-01T17:45:45;22.10;22.40
23311;DHT22;11828;51.508;18.118;2023-03-01T17:48:16;22.00;22.50
23311;DHT22;11828;51.508;18.118;2023-03-01T17:50:43;21.90;22.70
23311;DHT22;11828;51.508;18.118;2023-03-01T17:53:09;21.80;22.90
23311;DHT22;11828;51.508;18.118;2023-03-01T17:55:37;21.80;23.20
23311;DHT22;11828;51.508;18.118;2023-03-01T17:58:06;21.60;23.40
23311;DHT22;11828;51.508;18.118;2023-03-01T18:00:33;21.50;23.60
23311;DHT22;11828;51.508;18.118;2023-03-01T18:03:00;21.50;23.70
23311;DHT22;11828;51.508;18.118;2023-03-01T18:05:30;21.50;23.80
23311;DHT22;11828;51.508;18.118;2023-03-01T18:07:57;21.40;24.00
23311;DHT22;11828;51.508;18.118;2023-03-01T18:10:23;21.30;24.00
23311;DHT22;11828;51.508;18.118;2023-03-01T18:12:50;21.20;24.10
23311;DHT22;11828;51.508;18.118;2023-03-01T18:15:17;21.10;24.40
23311;DHT22;11828;51.508;18.118;2023-03-01T18:17:43;21.10;24.60
23311;DHT22;11828;51.508;18.118;2023-03-01T18:20:10;21.10;24.70
23311;DHT22;11828;51.508;18.118;2023-03-01T18:22:38;21.00;24.70
23311;DHT22;11828;51.508;18.118;2023-03-01T18:25:04;20.90;24.80
23311;DHT22;11828;51.508;18.118;2023-03-01T18:27:32;20.90;24.90